Etusivu
METAR-TAF:

METAR-TAF

Lentoasemat :

Port Hawkesbury, Nova Scotia, Kanada

Leveyspiiri: 45-40N, Pituuspiiri: 061-23W, korkeus merenpinnasta: 114 m

Tämänhetkinen sää

Tämä raportti tehtiin 46 minuuttia sitten, kello 04.00 UTC
Tuuli 8 kn lännestä/lounaasta
Lämpötila -3°C
Kosteus 80%
Ilmanpaine 1007 hPa
Näkyvyys: 14.5 km
Pilvistä 7500 ft:n korkeudessa

METAR: CYPD 290400Z AUTO 24008KT 9SM OVC075 M03/M06 A2974 RMK SLP077

Aika: 00:46 (04:46 UTC)


TAF: puuttuu

Säähavainnot ja -ennusteet yli 4000 lentoasemalta (METAR- ja TAF-raportit).

Käytössä olevat sääasemat on merkitty karttaan keltaisilla ja punaisilla pisteillä.

Aseta hiiri pisteen päälle nähdäksesi sääaseman nimen.

Klikkaa sitten nähdäksesi säähavainnot ja -ennusteet.

Kartan vaihtaminen: klikkaa mustalla rastilla varustettuja vihreitä pisteitä, niin voit zoomata sisään; viivalla varustettua vihreää pistettä, niin voit zoomata ulos tai vihreitä nuolia, niin pääset viereisille kartoille.


METAR-TAF: